createdAt,value
2022-10-31T19:20:07.012Z,1009.32
2022-10-31T19:21:06.952Z,1009.31
2022-10-31T19:22:06.900Z,1009.31
2022-10-31T19:23:10.486Z,1009.31
2022-10-31T19:24:06.804Z,1009.30
2022-10-31T19:25:10.566Z,1009.32
2022-10-31T19:26:06.721Z,1009.33
2022-10-31T19:27:06.679Z,1009.33
2022-10-31T19:28:06.621Z,1009.34
2022-10-31T19:29:06.578Z,1009.29
2022-10-31T19:30:06.531Z,1009.33
2022-10-31T19:31:06.488Z,1009.31
2022-10-31T19:32:06.497Z,1009.29
2022-10-31T19:33:06.543Z,1009.30
2022-10-31T19:34:06.368Z,1009.25
2022-10-31T19:35:06.358Z,1009.26
2022-10-31T19:36:06.310Z,1009.23
2022-10-31T19:37:06.455Z,1009.21
2022-10-31T19:38:06.398Z,1009.22
2022-10-31T19:39:06.182Z,1009.25
2022-10-31T19:40:06.104Z,1009.26
2022-10-31T19:41:06.054Z,1009.30
2022-10-31T19:42:06.226Z,1009.27
2022-10-31T19:43:05.960Z,1009.24
2022-10-31T19:44:05.923Z,1009.30
2022-10-31T19:45:05.881Z,1009.23
2022-10-31T19:46:05.832Z,1009.20
2022-10-31T19:47:05.784Z,1009.23
2022-10-31T19:48:05.738Z,1009.26
2022-10-31T19:49:05.703Z,1009.28
2022-10-31T19:50:05.651Z,1009.28
2022-10-31T19:51:05.609Z,1009.26
2022-10-31T19:52:05.584Z,1009.23
2022-10-31T19:53:05.525Z,1009.26
2022-10-31T19:54:05.480Z,1009.28
2022-10-31T19:55:05.438Z,1009.23
2022-10-31T19:56:05.392Z,1009.27
2022-10-31T19:57:05.350Z,1009.28
2022-10-31T19:58:05.309Z,1009.27
2022-10-31T19:59:05.271Z,1009.26
2022-10-31T20:00:05.220Z,1009.25
2022-10-31T20:01:05.274Z,1009.17
2022-10-31T20:02:05.134Z,1009.13
2022-10-31T20:03:05.151Z,1009.12
2022-10-31T20:04:05.048Z,1009.16
2022-10-31T20:05:05.092Z,1009.15
2022-10-31T20:06:04.961Z,1009.15
2022-10-31T20:07:04.918Z,1009.12
2022-10-31T20:08:04.889Z,1009.12
2022-10-31T20:09:04.832Z,1009.16
2022-10-31T20:10:04.784Z,1009.12
2022-10-31T20:11:04.746Z,1009.16
2022-10-31T20:12:04.698Z,1009.12
2022-10-31T20:13:04.757Z,1009.14
2022-10-31T20:14:04.613Z,1009.14
2022-10-31T20:15:04.577Z,1009.11
2022-10-31T20:16:04.529Z,1009.08
2022-10-31T20:17:04.489Z,1009.05
2022-10-31T20:18:04.441Z,1009.12
2022-10-31T20:19:04.398Z,1009.06
2022-10-31T20:20:04.353Z,1009.04
2022-10-31T20:21:05.049Z,1009.05
2022-10-31T20:22:04.269Z,1009.03
2022-10-31T20:23:04.320Z,1009.05
2022-10-31T20:24:04.205Z,1009.02
2022-10-31T20:25:04.142Z,1009.02
2022-10-31T20:26:04.096Z,1009.02
2022-10-31T20:27:04.053Z,1009.05
2022-10-31T20:28:04.007Z,1009.03
2022-10-31T20:29:03.980Z,1008.97
2022-10-31T20:30:03.923Z,1008.95
2022-10-31T20:31:03.883Z,1008.95
2022-10-31T20:32:03.838Z,1008.94
2022-10-31T20:33:04.180Z,1008.90
2022-10-31T20:34:03.749Z,1008.92
2022-10-31T20:35:03.712Z,1008.93
2022-10-31T20:36:03.663Z,1008.91
2022-10-31T20:37:03.623Z,1008.93
2022-10-31T20:38:03.903Z,1008.89
2022-10-31T20:39:03.539Z,1008.88
2022-10-31T20:40:03.509Z,1008.86
2022-10-31T20:41:03.448Z,1008.83
2022-10-31T20:42:03.403Z,1008.83
2022-10-31T20:43:03.368Z,1008.80
2022-10-31T20:44:03.320Z,1008.85
2022-10-31T20:45:03.285Z,1008.75
2022-10-31T20:46:03.233Z,1008.77
2022-10-31T20:47:03.188Z,1008.72
2022-10-31T20:48:03.644Z,1008.78
2022-10-31T20:49:03.103Z,1008.72
2022-10-31T20:50:03.057Z,1008.72
2022-10-31T20:51:03.077Z,1008.72
2022-10-31T20:52:02.977Z,1008.72
2022-10-31T20:53:03.433Z,1008.67
2022-10-31T20:54:02.887Z,1008.62
2022-10-31T20:55:02.849Z,1008.65
2022-10-31T20:56:06.946Z,1008.59
2022-10-31T20:57:02.758Z,1008.54
2022-10-31T20:58:02.713Z,1008.58
2022-10-31T20:59:02.671Z,1008.57
2022-10-31T21:00:02.639Z,1008.64
2022-10-31T21:01:02.664Z,1008.53
2022-10-31T21:02:02.743Z,1008.54
2022-10-31T21:03:02.866Z,1008.52
2022-10-31T21:04:02.451Z,1008.57
2022-10-31T21:05:02.410Z,1008.51
2022-10-31T21:06:02.367Z,1008.44
2022-10-31T21:07:02.332Z,1008.41
2022-10-31T21:08:02.279Z,1008.45
2022-10-31T21:09:02.237Z,1008.37
2022-10-31T21:10:02.203Z,1008.41
2022-10-31T21:11:02.154Z,1008.47
2022-10-31T21:12:02.146Z,1008.36
2022-10-31T21:14:02.024Z,1008.39
2022-10-31T21:15:01.980Z,1008.35
2022-10-31T21:16:01.941Z,1008.38
2022-10-31T21:17:01.890Z,1008.38
2022-10-31T21:18:01.852Z,1008.34
2022-10-31T21:19:01.804Z,1008.35
2022-10-31T21:20:01.764Z,1008.36
2022-10-31T21:21:01.722Z,1008.36
2022-10-31T21:23:30.116Z,1008.38
2022-10-31T21:24:30.069Z,1008.40
2022-10-31T21:25:30.026Z,1008.30
2022-10-31T21:26:29.987Z,1008.29
2022-10-31T21:27:29.954Z,1008.27
2022-10-31T21:28:29.898Z,1008.30
2022-10-31T21:29:29.863Z,1008.26
2022-10-31T21:30:29.827Z,1008.32
2022-10-31T21:31:29.766Z,1008.26
2022-10-31T21:32:29.726Z,1008.29
2022-10-31T21:33:29.689Z,1008.31
2022-10-31T21:34:29.645Z,1008.24
2022-10-31T21:35:29.597Z,1008.32
2022-10-31T21:36:29.547Z,1008.29
